Latest Weather Observations for Mount Baw Baw

IDV60801

Issued at 1:02 pm EST Sunday 26 April 2015 (issued every 30 minutes, with the page automatically refreshed every 10 minutes)

About weather observations | Map of weather stations | Latest weather observations for VIC | Other Formats
Station Details ID: 085291 Name: MOUNT BAW BAW Lat: -37.84 Lon: 146.27 Height: 1561.0 m
Data from the previous 72 hours. | See also: Recent months at Mount Baw Baw
Date/Time
EST
Temp
°C
App
Temp
°C
Dew
Point
Rel
Hum
%
Delta-T
°C
Wind Press
QNH
hPa
Press
MSL
hPa
Rain
since 9 am
mm
Dir
 
Spd
km/h
Gust
km/h
Spd
kts
Gust
kts
26/01:00pm 2.1 -5.7 2.0 99 0.0 SW 32 50 - 27 - - 3.2
26/12:57pm 2.0 -5.8 1.9 99 0.0 SW 32 50 - 27 - - 3.2
26/12:30pm 2.4 -4.9 2.3 99 0.0 SW 30 44 - 24 - - 2.4
26/12:00pm 2.3 -4.7 2.2 99 0.0 SW 28 41 - 22 - - 1.6
26/11:30am 1.8 -5.2 1.7 99 0.0 SW 28 41 - 22 - - 1.2
26/11:08am 1.6 -5.9 1.5 99 0.0 SW 30 48 - 26 - - 1.2
26/11:00am 1.6 -5.1 1.5 99 0.0 SW 26 39 - 21 - - 1.0
26/10:32am 1.3 -5.8 1.2 99 0.0 SW 28 50 - 27 - - 0.6
26/10:30am 1.3 -5.8 1.2 99 0.0 SW 28 39 - 21 - - 0.6
26/10:12am 0.9 -6.3 0.8 99 0.0 SW 28 46 - 25 - - 0.6
26/10:00am 0.8 -6.0 0.7 99 0.0 SW 26 39 - 21 - - 0.4
26/09:33am 0.8 -6.8 0.7 99 0.0 SW 30 48 - 26 - - 0.4
26/09:30am 0.5 -7.7 0.4 99 0.0 SW 33 48 - 26 - - 0.4
26/09:00am 0.8 -7.3 0.7 99 0.0 SW 33 54 - 29 - - 59.8
26/08:30am 1.0 -6.5 0.9 99 0.0 SW 30 48 - 26 - - 59.0
26/08:00am 1.4 -5.3 1.3 99 0.0 SW 26 41 - 22 - - 58.0
26/07:30am 1.3 -5.1 1.2 99 0.0 SW 24 39 - 21 - - 56.4
26/07:02am 1.0 -6.2 0.9 99 0.0 SW 28 46 - 25 - - 56.2
26/07:00am 1.1 -5.7 1.0 99 0.0 SW 26 41 - 22 - - 56.2
26/06:30am 1.5 -5.2 1.4 99 0.0 SW 26 44 - 24 - - 55.0
26/06:00am 1.8 -5.6 1.7 99 0.0 SW 30 48 - 26 - - 53.0
26/05:55am 1.8 -5.6 1.7 99 0.0 SW 30 48 - 26 - - 52.6
26/05:30am 2.0 -5.0 1.9 99 0.0 SW 28 41 - 22 - - 51.0
26/05:00am 2.1 -4.5 2.0 99 0.0 SW 26 37 - 20 - - 49.2
26/04:35am 2.4 -4.9 2.3 99 0.0 SW 30 48 - 26 - - 47.6
26/04:30am 2.4 -4.5 2.3 99 0.0 SW 28 41 - 22 - - 47.2
26/04:02am 2.5 -4.4 2.4 99 0.0 SW 28 46 - 25 - - 45.2
26/04:00am 2.5 -4.0 2.4 99 0.0 SW 26 41 - 22 - - 45.0
26/03:43am 2.6 -4.3 2.5 99 0.0 SW 28 50 - 27 - - 43.6
26/03:30am 2.8 -4.1 2.7 99 0.0 SW 28 41 - 22 - - 42.4
26/03:00am 3.0 -3.5 2.9 99 0.0 SW 26 41 - 22 - - 39.2
26/02:33am 3.2 -3.6 3.1 99 0.0 SW 28 46 - 25 - - 37.2
26/02:30am 3.2 -3.2 3.1 99 0.0 SW 26 46 - 25 - - 37.0
26/02:00am 3.3 -3.5 3.2 99 0.0 SW 28 43 - 23 - - 34.6
26/01:30am 3.6 -3.1 3.5 99 0.0 SW 28 39 - 21 - - 31.4
26/01:00am 3.9 -2.8 3.8 99 0.0 SW 28 41 - 22 - - 27.4
26/12:30am 4.1 -1.8 4.0 99 0.0 SW 24 43 - 23 - - 25.4
26/12:00am 4.3 -0.8 4.2 99 0.0 SSW 20 39 - 21 - - 20.2
 
Date/Time
EST
Temp
°C
App
Temp
°C
Dew
Point
Rel
Hum
%
Delta-T
°C
Wind Press
QNH
hPa
Press
MSL
hPa
Rain
since 9 am
mm
Dir
 
Spd
km/h
Gust
km/h
Spd
kts
Gust
kts
25/11:30pm 4.2 -0.3 4.1 99 0.0 SSW 17 28 - 15 - - 15.8
25/11:00pm 4.1 -0.1 4.0 99 0.0 SSW 15 24 - 13 - - 13.8
25/10:30pm 3.8 -1.4 3.7 99 0.0 SSW 20 32 - 17 - - 12.8
25/10:00pm 3.7 -0.2 3.6 99 0.0 SSW 13 20 - 11 - - 11.8
25/09:30pm 3.2 -1.9 3.1 99 0.0 SSW 19 26 - 14 - - 11.8
25/09:00pm 3.8 -1.2 3.7 99 0.0 SSW 19 30 - 16 - - 11.8
25/08:30pm 4.2 -0.3 4.1 99 0.0 SSW 17 26 - 14 - - 11.6
25/08:00pm 4.4 -0.5 4.3 99 0.0 SSW 19 28 - 15 - - 10.0
25/07:30pm 4.1 -0.1 4.0 99 0.0 SSW 15 24 - 13 - - 9.0
25/07:00pm 3.7 0.2 3.6 99 0.0 SSW 11 17 - 9 - - 7.8
25/06:30pm 3.7 0.2 3.6 99 0.0 SSW 11 17 - 9 - - 6.2
25/06:00pm 3.8 -0.4 3.7 99 0.0 SSW 15 22 - 12 - - 4.2
25/05:30pm 3.8 0.0 3.7 99 0.0 SSW 13 22 - 12 - - 3.0
25/05:00pm 3.9 0.8 3.8 99 0.0 SSW 9 17 - 9 - - 2.2
25/04:30pm 4.0 0.6 3.9 99 0.0 SSW 11 17 - 9 - - 1.6
25/04:00pm 4.2 0.8 4.1 99 0.0 SSW 11 17 - 9 - - 1.6
25/03:30pm 4.3 1.3 4.2 99 0.0 SSW 9 13 - 7 - - 1.4
25/03:00pm 4.3 0.9 4.2 99 0.0 SSW 11 15 - 8 - - 0.8
25/02:30pm 4.6 1.7 4.5 99 0.0 SSW 9 13 - 7 - - 0.8
25/02:00pm 4.7 2.2 4.6 99 0.0 SSW 7 11 - 6 - - 0.8
25/01:30pm 4.5 1.6 4.4 99 0.0 SSW 9 13 - 7 - - 0.8
25/01:00pm 4.9 2.0 4.8 99 0.0 N 9 11 - 6 - - 0.8
25/12:30pm 5.2 3.7 5.1 99 0.0 ESE 2 6 - 3 - - 0.8
25/12:00pm 4.7 2.4 4.6 99 0.0 E 6 7 - 4 - - 0.8
25/11:30am 4.8 3.6 4.7 99 0.0 CALM 0 0 - 0 - - 0.4
25/11:00am 4.5 3.3 4.4 99 0.0 CALM 0 0 - 0 - - 0.4
25/10:30am 3.9 1.4 3.8 99 0.0 ENE 6 7 - 4 - - 0.2
25/10:00am 3.7 1.2 3.6 99 0.0 NE 6 9 - 5 - - 0.0
25/09:30am 4.0 2.7 3.9 99 0.0 CALM 0 0 - 0 - - 0.0
25/09:00am 4.1 2.8 4.0 99 0.0 CALM 0 0 - 0 - - 0.8
25/08:30am 3.9 1.8 3.8 99 0.0 NE 4 7 - 4 - - 0.8
25/08:00am 4.0 1.5 3.9 99 0.0 SW 6 9 - 5 - - 0.8
25/07:30am 4.1 1.5 3.2 94 0.4 WNW 6 9 - 5 - - 0.8
25/07:00am 4.1 1.5 4.0 99 0.0 WSW 7 9 - 5 - - 0.8
25/06:30am 3.8 1.3 3.7 99 0.0 N 6 7 - 4 - - 0.8
25/06:00am 3.9 1.2 3.8 99 0.0 WSW 7 13 - 7 - - 0.8
25/05:30am 3.9 0.8 3.8 99 0.0 SW 9 13 - 7 - - 0.8
25/05:00am 4.0 1.0 3.9 99 0.0 WNW 9 15 - 8 - - 0.8
25/04:30am 3.8 0.7 3.7 99 0.0 NNW 9 15 - 8 - - 0.8
25/04:00am 4.0 1.0 3.9 99 0.0 WSW 9 17 - 9 - - 0.8
25/03:30am 4.3 1.7 4.2 99 0.0 NNW 7 17 - 9 - - 0.8
25/03:00am 4.2 1.2 4.1 99 0.0 W 9 15 - 8 - - 0.8
25/02:30am 4.1 1.1 4.0 99 0.0 W 9 15 - 8 - - 0.8
25/02:00am 4.2 1.6 4.1 99 0.0 N 7 15 - 8 - - 0.8
25/01:30am 4.0 0.2 3.9 99 0.0 WSW 13 20 - 11 - - 0.6
25/01:00am 5.0 2.1 4.9 99 0.0 WNW 9 17 - 9 - - 0.0
25/12:30am 4.8 1.9 4.7 99 0.0 W 9 19 - 10 - - 0.0
25/12:00am 4.8 1.5 4.7 99 0.0 WNW 11 22 - 12 - - 0.0
 
Date/Time
EST
Temp
°C
App
Temp
°C
Dew
Point
Rel
Hum
%
Delta-T
°C
Wind Press
QNH
hPa
Press
MSL
hPa
Rain
since 9 am
mm
Dir
 
Spd
km/h
Gust
km/h
Spd
kts
Gust
kts
24/11:30pm 4.9 1.6 4.8 99 0.0 WSW 11 24 - 13 - - 0.0
24/11:00pm 5.0 1.8 4.9 99 0.0 WNW 11 22 - 12 - - 0.0
24/10:30pm 5.2 2.0 5.1 99 0.0 WNW 11 20 - 11 - - 0.0
24/10:00pm 5.1 1.9 5.0 99 0.0 NW 11 19 - 10 - - 0.0
24/09:30pm 5.1 1.9 5.0 99 0.0 NW 11 22 - 12 - - 0.0
24/09:00pm 5.1 2.3 5.0 99 0.0 WNW 9 17 - 9 - - 0.0
24/08:30pm 5.1 2.3 5.0 99 0.0 WNW 9 20 - 11 - - 0.0
24/08:00pm 5.2 2.0 5.1 99 0.0 NW 11 20 - 11 - - 0.0
24/07:30pm 5.6 2.1 5.5 99 0.0 NW 13 24 - 13 - - 0.0
24/07:00pm 5.9 2.5 5.8 99 0.0 NW 13 20 - 11 - - 0.0
24/06:30pm 6.0 2.6 5.9 99 0.0 NW 13 24 - 13 - - 0.0
24/06:00pm 6.2 2.8 6.1 99 0.0 NW 13 22 - 12 - - 0.0
24/05:30pm 6.3 3.3 6.2 99 0.0 NW 11 19 - 10 - - 0.0
24/05:00pm 6.6 3.2 6.0 96 0.3 NNW 13 24 - 13 - - 0.0
24/04:30pm 7.0 3.7 6.4 96 0.3 NNW 13 22 - 12 - - 0.0
24/04:00pm 7.5 4.5 6.1 91 0.7 NW 11 20 - 11 - - 0.0
24/03:30pm 8.0 4.9 7.1 94 0.5 NNW 13 22 - 12 - - 0.0
24/03:00pm 7.8 5.1 7.2 96 0.3 NNW 11 20 - 11 - - 0.0
24/02:30pm 8.2 5.5 7.3 94 0.5 NNW 11 20 - 11 - - 0.0
24/02:00pm 8.2 5.9 7.3 94 0.5 NNW 9 19 - 10 - - 0.0
24/01:30pm 8.4 5.3 7.3 93 0.6 NW 13 22 - 12 - - 0.0
24/01:00pm 8.2 5.1 7.4 95 0.4 WNW 13 28 - 15 - - 0.0
24/12:30pm 7.8 4.4 7.5 98 0.2 NNW 15 24 - 13 - - 0.0
24/12:00pm 7.9 4.9 7.8 99 0.1 NW 13 24 - 13 - - 0.0
24/11:30am 7.5 4.8 7.4 99 0.1 NW 11 20 - 11 - - 0.0
24/11:00am 7.6 4.6 7.5 99 0.1 NNW 13 22 - 12 - - 0.0
24/10:30am 7.4 4.7 7.3 99 0.1 NW 11 22 - 12 - - 0.0
24/10:00am 7.7 5.1 7.6 99 0.1 NNW 11 20 - 11 - - 0.0
24/09:30am 7.8 5.6 7.7 99 0.1 NNW 9 24 - 13 - - 0.0
24/09:00am 7.9 5.3 7.8 99 0.1 WNW 11 22 - 12 - - 0.2
24/08:30am 7.9 5.7 7.8 99 0.1 NNW 9 17 - 9 - - 0.2
24/08:00am 7.8 5.6 7.7 99 0.1 N 9 19 - 10 - - 0.2
24/07:30am 7.7 5.4 7.6 99 0.1 N 9 20 - 11 - - 0.2
24/07:00am 7.5 5.2 7.4 99 0.1 NNE 9 17 - 9 - - 0.2
24/06:30am 7.6 5.7 7.5 99 0.1 NNW 7 11 - 6 - - 0.2
24/06:00am 7.5 5.2 7.4 99 0.1 WNW 9 17 - 9 - - 0.2
24/05:30am 7.6 4.9 7.5 99 0.1 WNW 11 17 - 9 - - 0.2
24/05:00am 7.7 5.8 7.6 99 0.1 NW 7 17 - 9 - - 0.2
24/04:30am 7.8 5.6 7.7 99 0.1 WNW 9 17 - 9 - - 0.2
24/04:00am 7.7 5.4 7.6 99 0.1 W 9 17 - 9 - - 0.2
24/03:30am 7.8 5.6 7.7 99 0.1 W 9 13 - 7 - - 0.2
24/03:00am 7.8 5.6 7.7 99 0.1 W 9 15 - 8 - - 0.2
24/02:30am 7.8 5.9 7.7 99 0.1 NW 7 11 - 6 - - 0.2
24/02:00am 7.9 6.1 7.8 99 0.1 NW 7 11 - 6 - - 0.2
24/01:30am 8.0 5.8 7.9 99 0.1 SW 9 13 - 7 - - 0.2
24/01:00am 8.0 6.2 7.9 99 0.1 W 7 11 - 6 - - 0.2
24/12:30am 7.9 6.1 7.9 100 0.0 NW 7 11 - 6 - - 0.2
24/12:00am 7.8 5.6 7.8 100 0.0 NNE 9 13 - 7 - - 0.2
 
Date/Time
EST
Temp
°C
App
Temp
°C
Dew
Point
Rel
Hum
%
Delta-T
°C
Wind Press
QNH
hPa
Press
MSL
hPa
Rain
since 9 am
mm
Dir
 
Spd
km/h
Gust
km/h
Spd
kts
Gust
kts
23/11:30pm 7.8 5.6 7.8 100 0.0 NE 9 15 - 8 - - 0.2
23/11:00pm 7.6 5.3 7.6 100 0.0 NNE 9 11 - 6 - - 0.2
23/10:30pm 7.6 5.3 7.6 100 0.0 ENE 9 13 - 7 - - 0.2
23/10:00pm 7.6 5.7 7.6 100 0.0 ENE 7 11 - 6 - - 0.2
23/09:30pm 7.5 5.2 7.4 99 0.1 ENE 9 13 - 7 - - 0.2
23/09:00pm 7.4 5.1 7.3 99 0.1 ENE 9 15 - 8 - - 0.2
23/08:30pm 7.4 5.1 7.3 99 0.1 E 9 17 - 9 - - 0.2
23/08:00pm 7.3 4.6 7.2 99 0.1 ENE 11 19 - 10 - - 0.2
23/07:30pm 7.3 4.9 7.2 99 0.1 ENE 9 17 - 9 - - 0.2
23/07:00pm 7.4 4.7 7.3 99 0.1 ENE 11 15 - 8 - - 0.2
23/06:30pm 7.5 4.8 7.4 99 0.1 ENE 11 17 - 9 - - 0.2
23/06:00pm 7.5 5.2 7.4 99 0.1 E 9 13 - 7 - - 0.2
23/05:30pm 7.7 5.4 7.6 99 0.1 E 9 19 - 10 - - 0.2
23/05:00pm 8.1 5.9 8.0 99 0.1 E 9 19 - 10 - - 0.2
23/04:30pm 8.2 5.7 8.1 99 0.1 E 11 19 - 10 - - 0.2
23/04:00pm 8.5 6.1 8.5 100 0.0 ENE 11 20 - 11 - - 0.2
23/03:30pm 8.6 6.6 8.6 100 0.0 E 9 19 - 10 - - 0.2
23/03:00pm 8.7 6.3 8.7 100 0.0 E 11 20 - 11 - - 0.2
23/02:30pm 8.8 6.8 8.8 100 0.0 E 9 17 - 9 - - 0.2
23/02:00pm 8.5 6.5 8.5 100 0.0 E 9 20 - 11 - - 0.2
23/01:30pm 8.8 6.8 8.8 100 0.0 E 9 19 - 10 - - 0.2

Other Formats:

Comma delimited format used in spreadsheet applications
http://www.bom.gov.au/fwo/IDV60801/IDV60801.95901.axf

JavaScript Object Notation format (JSON) in row-major order
http://www.bom.gov.au/fwo/IDV60801/IDV60801.95901.json